Time;durP1;ratioP1;P1;durP2;ratioP2;P2;SDS_P1;SDS_P2;PMS_P1;PMS_P2;Temp;Humidity;BMP_temperature;BMP_pressure;BME280_temperature;BME280_humidity;BME280_pressure;Samples;Min_cycle;Max_cycle;Signal;HPM_P1;HPM_P2
2022/08/24 00:00:13;;;;;;;5.28;2.97;;;;;;;;;;5071032;28;20052;-64
2022/08/24 00:02:59;;;;;;;5.75;2.90;;;;;;;;;;5088744;28;20034;-64
2022/08/24 00:05:44;;;;;;;6.00;3.03;;;;;;;;;;5086793;28;20031;-64
2022/08/24 00:08:30;;;;;;;5.25;2.92;;;;;;;;;;5089329;28;20065;-62
2022/08/24 00:11:16;;;;;;;4.43;3.10;;;;;;;;;;5090055;28;20035;-63
2022/08/24 00:14:02;;;;;;;4.88;3.15;;;;;;;;;;5076184;28;20028;-73
2022/08/24 00:16:47;;;;;;;3.70;2.85;;;;;;;;;;5080986;28;20494;-65
2022/08/24 00:19:33;;;;;;;5.57;3.25;;;;;;;;;;5070295;28;20040;-65
2022/08/24 00:22:19;;;;;;;6.30;3.60;;;;;;;;;;5087741;28;20032;-66
2022/08/24 00:25:05;;;;;;;7.25;3.40;;;;;;;;;;5086726;28;20036;-66
2022/08/24 00:27:51;;;;;;;8.95;3.60;;;;;;;;;;5091991;28;20371;-64
2022/08/24 00:30:36;;;;;;;9.15;4.78;;;;;;;;;;5088060;28;20433;-64
2022/08/24 00:33:22;;;;;;;6.90;3.10;;;;;;;;;;5090335;28;20059;-70
2022/08/24 00:36:07;;;;;;;4.53;3.38;;;;;;;;;;5081293;28;20028;-64
2022/08/24 00:38:53;;;;;;;6.75;3.65;;;;;;;;;;5086342;28;20114;-64
2022/08/24 00:41:40;;;;;;;6.53;3.33;;;;;;;;;;5081971;28;20355;-62
2022/08/24 00:44:26;;;;;;;8.48;3.67;;;;;;;;;;5087583;28;20419;-64
2022/08/24 00:47:26;;;;;;;2.92;2.63;;;;;;;;;;5090638;28;20426;-66
2022/08/24 00:50:15;;;;;;;4.93;3.20;;;;;;;;;;5085731;28;20024;-65
2022/08/24 00:53:03;;;;;;;4.35;3.10;;;;;;;;;;5084479;28;20032;-63
2022/08/24 00:55:50;;;;;;;7.32;3.55;;;;;;;;;;5084952;28;20111;-64
2022/08/24 00:58:51;;;;;;;4.30;2.90;;;;;;;;;;5089331;28;20119;-64
2022/08/24 01:01:37;;;;;;;5.35;3.22;;;;;;;;;;5082961;28;20040;-63
2022/08/24 01:04:33;;;;;;;5.32;3.28;;;;;;;;;;5086031;28;20081;-66
2022/08/24 01:07:21;;;;;;;4.93;3.05;;;;;;;;;;5074429;28;20037;-66
2022/08/24 01:10:15;;;;;;;5.30;3.83;;;;;;;;;;5087103;28;20101;-63
2022/08/24 01:13:02;;;;;;;5.68;3.15;;;;;;;;;;5086360;28;20021;-64
2022/08/24 01:15:49;;;;;;;4.78;2.95;;;;;;;;;;5067221;28;20123;-62
2022/08/24 01:18:50;;;;;;;5.38;3.10;;;;;;;;;;5088958;28;20093;-65
2022/08/24 01:21:40;;;;;;;6.20;2.95;;;;;;;;;;5062521;28;20025;-63
2022/08/24 01:24:26;;;;;;;6.25;3.92;;;;;;;;;;5083471;28;20056;-64
2022/08/24 01:27:13;;;;;;;4.47;3.00;;;;;;;;;;5085031;28;20024;-60
2022/08/24 01:30:00;;;;;;;5.82;3.30;;;;;;;;;;5080027;28;20348;-65
2022/08/24 01:32:56;;;;;;;11.18;3.58;;;;;;;;;;5081635;28;20051;-65
2022/08/24 01:35:41;;;;;;;7.28;3.72;;;;;;;;;;5088543;28;20025;-67
2022/08/24 01:38:27;;;;;;;5.65;3.05;;;;;;;;;;5093088;28;20111;-65
2022/08/24 01:41:13;;;;;;;6.90;3.40;;;;;;;;;;5093251;28;20106;-65
2022/08/24 01:43:58;;;;;;;4.22;3.15;;;;;;;;;;5087152;28;20028;-65
2022/08/24 01:46:45;;;;;;;6.65;3.28;;;;;;;;;;5080923;28;20547;-60
2022/08/24 01:49:32;;;;;;;5.25;3.22;;;;;;;;;;5088502;28;20028;-65
2022/08/24 01:52:19;;;;;;;5.35;3.00;;;;;;;;;;5068698;28;20031;-67
2022/08/24 01:55:09;;;;;;;8.02;3.92;;;;;;;;;;5083167;28;20051;-65
2022/08/24 01:57:54;;;;;;;5.40;3.20;;;;;;;;;;5091025;28;20395;-65
2022/08/24 02:00:40;;;;;;;5.75;3.05;;;;;;;;;;5081914;28;20043;-66
2022/08/24 02:03:26;;;;;;;3.85;2.92;;;;;;;;;;5092282;28;20444;-64
2022/08/24 02:06:12;;;;;;;5.22;3.58;;;;;;;;;;5081365;28;20115;-65
2022/08/24 02:08:58;;;;;;;4.35;3.25;;;;;;;;;;5083887;28;20417;-73
2022/08/24 02:11:43;;;;;;;5.68;3.35;;;;;;;;;;5077052;28;20040;-74
2022/08/24 02:14:29;;;;;;;5.43;3.42;;;;;;;;;;5088811;28;20074;-72
2022/08/24 02:17:15;;;;;;;4.15;2.92;;;;;;;;;;5092166;28;20059;-73
2022/08/24 02:20:02;;;;;;;8.40;3.78;;;;;;;;;;5091578;28;20404;-74
2022/08/24 02:22:51;;;;;;;6.22;3.03;;;;;;;;;;5091550;28;20051;-73
2022/08/24 02:25:37;;;;;;;8.20;3.85;;;;;;;;;;5092332;28;20031;-66
2022/08/24 02:28:23;;;;;;;4.75;3.13;;;;;;;;;;5092124;28;20028;-67
2022/08/24 02:31:10;;;;;;;5.50;3.47;;;;;;;;;;5088636;28;20036;-67
2022/08/24 02:33:56;;;;;;;4.57;3.25;;;;;;;;;;5089498;28;20115;-65
2022/08/24 02:36:41;;;;;;;5.60;3.38;;;;;;;;;;5086661;28;20111;-65
2022/08/24 02:39:28;;;;;;;6.07;3.03;;;;;;;;;;5086244;28;20055;-66
2022/08/24 02:42:14;;;;;;;6.25;3.58;;;;;;;;;;5083255;28;20027;-71
2022/08/24 02:45:00;;;;;;;5.97;3.33;;;;;;;;;;5074322;28;20032;-65
2022/08/24 02:47:46;;;;;;;6.43;3.75;;;;;;;;;;5081262;28;20039;-65
2022/08/24 02:50:31;;;;;;;7.88;3.55;;;;;;;;;;5083287;28;20024;-65
2022/08/24 02:53:18;;;;;;;5.53;3.63;;;;;;;;;;5088750;28;20107;-66
2022/08/24 02:56:03;;;;;;;7.35;3.72;;;;;;;;;;5091964;28;20028;-67
2022/08/24 02:58:49;;;;;;;3.97;3.33;;;;;;;;;;5082331;28;20027;-65
2022/08/24 03:01:34;;;;;;;4.88;3.30;;;;;;;;;;5090235;28;20115;-74
2022/08/24 03:04:20;;;;;;;5.72;3.40;;;;;;;;;;5079354;28;20059;-69
2022/08/24 03:07:06;;;;;;;4.82;2.90;;;;;;;;;;5084339;28;20119;-70
2022/08/24 03:09:51;;;;;;;4.95;3.22;;;;;;;;;;5077593;28;20021;-68
2022/08/24 03:12:37;;;;;;;5.65;3.33;;;;;;;;;;5090201;28;20057;-67
2022/08/24 03:15:23;;;;;;;3.97;3.45;;;;;;;;;;5084927;28;20628;-68
2022/08/24 03:18:08;;;;;;;4.30;3.42;;;;;;;;;;5091334;28;20084;-76
2022/08/24 03:20:55;;;;;;;5.75;3.40;;;;;;;;;;5075566;28;20036;-65
2022/08/24 03:23:40;;;;;;;3.15;2.70;;;;;;;;;;5075290;28;20020;-65
2022/08/24 03:26:26;;;;;;;5.82;3.83;;;;;;;;;;5086784;28;20503;-65
2022/08/24 03:29:12;;;;;;;5.47;3.20;;;;;;;;;;5087659;28;20032;-67
2022/08/24 03:31:58;;;;;;;6.53;3.78;;;;;;;;;;5087983;28;20028;-66
2022/08/24 03:34:43;;;;;;;7.07;3.55;;;;;;;;;;5091396;28;20039;-66
2022/08/24 03:37:31;;;;;;;6.90;3.78;;;;;;;;;;5082541;28;20078;-68
2022/08/24 03:40:19;;;;;;;7.97;3.50;;;;;;;;;;5080390;28;20019;-65
2022/08/24 03:43:04;;;;;;;5.82;3.75;;;;;;;;;;5088476;28;20459;-65
2022/08/24 03:45:50;;;;;;;5.15;3.65;;;;;;;;;;5075225;28;20039;-64
2022/08/24 03:48:35;;;;;;;6.40;3.30;;;;;;;;;;5080031;28;20035;-65
2022/08/24 03:51:22;;;;;;;9.48;3.72;;;;;;;;;;5091776;28;20406;-65
2022/08/24 03:54:09;;;;;;;6.20;3.83;;;;;;;;;;5086672;28;20020;-60
2022/08/24 03:56:55;;;;;;;4.78;3.40;;;;;;;;;;5074710;28;20410;-60
2022/08/24 03:59:40;;;;;;;7.20;3.80;;;;;;;;;;5071893;28;20040;-73
2022/08/24 04:02:26;;;;;;;4.43;3.63;;;;;;;;;;5084133;28;20103;-73
2022/08/24 04:05:12;;;;;;;7.07;3.75;;;;;;;;;;5089325;28;20027;-74
2022/08/24 04:07:57;;;;;;;9.10;3.38;;;;;;;;;;5088702;28;20039;-75
2022/08/24 04:10:43;;;;;;;5.80;3.42;;;;;;;;;;5084451;28;20493;-74
2022/08/24 04:13:30;;;;;;;5.45;3.50;;;;;;;;;;5084561;28;20039;-60
2022/08/24 04:16:17;;;;;;;5.80;2.92;;;;;;;;;;5089912;28;20035;-66
2022/08/24 04:19:03;;;;;;;8.05;3.30;;;;;;;;;;5082805;28;20040;-67
2022/08/24 04:21:49;;;;;;;7.05;3.97;;;;;;;;;;5088526;28;20027;-66
2022/08/24 04:24:34;;;;;;;6.25;3.78;;;;;;;;;;5086825;28;20111;-63
2022/08/24 04:27:20;;;;;;;8.50;3.67;;;;;;;;;;5081588;28;20027;-64
2022/08/24 04:30:06;;;;;;;6.47;3.70;;;;;;;;;;5084152;28;20476;-65
2022/08/24 04:32:52;;;;;;;6.57;3.60;;;;;;;;;;5089020;28;20040;-69
2022/08/24 04:35:38;;;;;;;5.35;3.80;;;;;;;;;;5085728;28;20040;-71
2022/08/24 04:38:25;;;;;;;6.72;4.25;;;;;;;;;;5083354;28;20024;-69
2022/08/24 04:41:11;;;;;;;5.55;4.05;;;;;;;;;;5079309;28;20020;-71
2022/08/24 04:43:58;;;;;;;6.20;4.13;;;;;;;;;;5085305;28;20034;-72
2022/08/24 04:46:43;;;;;;;6.15;4.05;;;;;;;;;;5064994;28;20024;-73
2022/08/24 04:49:29;;;;;;;6.35;3.35;;;;;;;;;;5088480;28;20047;-65
2022/08/24 04:52:15;;;;;;;9.25;4.00;;;;;;;;;;5086509;28;20039;-62
2022/08/24 04:55:00;;;;;;;4.80;3.50;;;;;;;;;;5078414;28;20024;-61
2022/08/24 04:57:46;;;;;;;5.10;3.78;;;;;;;;;;5077001;28;20049;-62
2022/08/24 05:00:32;;;;;;;5.30;3.58;;;;;;;;;;5077475;28;20117;-63
2022/08/24 05:03:18;;;;;;;5.70;3.58;;;;;;;;;;5081966;28;20038;-62
2022/08/24 05:06:04;;;;;;;8.07;3.85;;;;;;;;;;5088036;28;20352;-61
2022/08/24 05:08:50;;;;;;;6.28;3.70;;;;;;;;;;5076492;28;20458;-64
2022/08/24 05:11:37;;;;;;;8.65;4.50;;;;;;;;;;5084561;28;20028;-62
2022/08/24 05:14:23;;;;;;;7.20;3.95;;;;;;;;;;5085419;28;20025;-63
2022/08/24 05:17:08;;;;;;;7.22;3.95;;;;;;;;;;5090341;28;20024;-64
2022/08/24 05:19:54;;;;;;;7.35;3.78;;;;;;;;;;5092743;28;20042;-62
2022/08/24 05:22:39;;;;;;;5.38;3.70;;;;;;;;;;5082740;28;20024;-64
2022/08/24 05:25:25;;;;;;;7.32;4.00;;;;;;;;;;5092065;28;20032;-60
2022/08/24 05:28:11;;;;;;;7.72;3.97;;;;;;;;;;5094058;28;20036;-76
2022/08/24 05:31:04;;;;;;;7.50;3.97;;;;;;;;;;5090168;28;20024;-68
2022/08/24 05:33:49;;;;;;;15.65;4.47;;;;;;;;;;5089573;28;20491;-68
2022/08/24 05:36:39;;;;;;;5.68;3.80;;;;;;;;;;5085807;28;20080;-69
2022/08/24 05:39:25;;;;;;;8.32;3.88;;;;;;;;;;5090108;28;20107;-69
2022/08/24 05:42:12;;;;;;;5.72;4.20;;;;;;;;;;5091836;28;20111;-69
2022/08/24 05:44:58;;;;;;;8.65;3.83;;;;;;;;;;5090584;28;20028;-60
2022/08/24 05:47:44;;;;;;;7.78;3.97;;;;;;;;;;5081786;28;20058;-70
2022/08/24 05:50:29;;;;;;;7.45;3.90;;;;;;;;;;5088880;28;21541;-73
2022/08/24 05:53:15;;;;;;;5.78;4.10;;;;;;;;;;5088444;28;20032;-67
2022/08/24 05:56:05;;;;;;;7.85;4.20;;;;;;;;;;5090541;28;20114;-70
2022/08/24 05:58:50;;;;;;;10.63;4.15;;;;;;;;;;5066841;28;20163;-62
2022/08/24 06:01:36;;;;;;;6.63;3.53;;;;;;;;;;5089857;28;20082;-63
2022/08/24 06:04:22;;;;;;;6.93;4.15;;;;;;;;;;5082789;28;20035;-64
2022/08/24 06:07:09;;;;;;;8.18;4.00;;;;;;;;;;5088553;28;20020;-64
2022/08/24 06:09:54;;;;;;;7.85;4.15;;;;;;;;;;5086060;28;20054;-64
2022/08/24 06:12:40;;;;;;;6.70;3.65;;;;;;;;;;5066823;28;20040;-65
2022/08/24 06:15:25;;;;;;;6.70;3.42;;;;;;;;;;5082220;28;20085;-63
2022/08/24 06:18:11;;;;;;;5.75;3.33;;;;;;;;;;5089160;28;20351;-65
2022/08/24 06:20:56;;;;;;;6.63;3.50;;;;;;;;;;5086096;28;20088;-64
2022/08/24 06:23:43;;;;;;;7.97;3.95;;;;;;;;;;5084717;28;20027;-63
2022/08/24 06:29:33;;;;;;;9.82;3.40;;;;;;;;;;5086299;28;20502;-62
2022/08/24 06:32:19;;;;;;;5.15;3.10;;;;;;;;;;5085662;28;20034;-64
2022/08/24 06:35:06;;;;;;;8.38;3.72;;;;;;;;;;5082488;28;20040;-67
2022/08/24 06:37:51;;;;;;;5.82;3.65;;;;;;;;;;5088583;28;20048;-65
2022/08/24 06:40:37;;;;;;;7.82;3.70;;;;;;;;;;5078332;28;20032;-67
2022/08/24 06:43:23;;;;;;;10.13;3.20;;;;;;;;;;5082301;28;20115;-68
2022/08/24 06:46:08;;;;;;;5.55;3.15;;;;;;;;;;5087434;28;20094;-68
2022/08/24 06:48:54;;;;;;;7.50;3.22;;;;;;;;;;5086500;28;20413;-66
2022/08/24 06:51:40;;;;;;;6.05;3.10;;;;;;;;;;5078899;28;20034;-69
2022/08/24 06:54:25;;;;;;;8.00;3.28;;;;;;;;;;5086691;28;20035;-66
2022/08/24 06:57:11;;;;;;;5.35;3.10;;;;;;;;;;5080367;28;20032;-67
2022/08/24 06:59:57;;;;;;;8.50;3.78;;;;;;;;;;5089757;28;20456;-66
2022/08/24 07:02:42;;;;;;;7.45;2.75;;;;;;;;;;5083862;28;20383;-64
2022/08/24 07:05:28;;;;;;;6.80;3.20;;;;;;;;;;5081904;28;20022;-61
2022/08/24 07:08:13;;;;;;;5.90;2.90;;;;;;;;;;5083414;28;20032;-61
2022/08/24 07:10:59;;;;;;;5.63;3.15;;;;;;;;;;5088170;28;20101;-66
2022/08/24 07:13:46;;;;;;;5.55;2.50;;;;;;;;;;5085382;28;20027;-64
2022/08/24 07:16:32;;;;;;;6.55;2.85;;;;;;;;;;5085310;28;20086;-66
2022/08/24 07:19:18;;;;;;;7.47;2.67;;;;;;;;;;5088461;28;20039;-62
2022/08/24 07:22:04;;;;;;;6.30;2.70;;;;;;;;;;5089281;28;20112;-65
2022/08/24 07:24:49;;;;;;;7.43;3.17;;;;;;;;;;5086329;28;20050;-64
2022/08/24 07:27:35;;;;;;;4.05;2.72;;;;;;;;;;5080610;28;20449;-64
2022/08/24 07:30:20;;;;;;;5.53;3.20;;;;;;;;;;5086457;28;20031;-62
2022/08/24 07:33:07;;;;;;;7.82;2.80;;;;;;;;;;5073427;28;20034;-62
2022/08/24 07:35:52;;;;;;;5.05;2.60;;;;;;;;;;5087492;28;20032;-63
2022/08/24 07:38:38;;;;;;;5.53;3.22;;;;;;;;;;5086263;28;20037;-62
2022/08/24 07:41:27;;;;;;;6.25;3.00;;;;;;;;;;5090219;28;20094;-62
2022/08/24 07:44:13;;;;;;;;;;;;;;;;;;5083976;28;20040;-62
2022/08/24 07:46:59;;;;;;;9.15;3.22;;;;;;;;;;5086540;28;20370;-62
2022/08/24 07:49:45;;;;;;;7.15;3.72;;;;;;;;;;5089295;28;20028;-63
2022/08/24 07:52:31;;;;;;;7.97;3.40;;;;;;;;;;5087147;28;20032;-63
2022/08/24 07:55:17;;;;;;;8.95;3.70;;;;;;;;;;5085801;28;20851;-63
2022/08/24 07:58:02;;;;;;;6.40;3.47;;;;;;;;;;5083299;28;20067;-69
2022/08/24 08:00:48;;;;;;;9.68;3.15;;;;;;;;;;5086892;28;20486;-69
2022/08/24 08:03:34;;;;;;;8.25;4.30;;;;;;;;;;5072248;28;20081;-67
2022/08/24 08:06:20;;;;;;;7.68;3.38;;;;;;;;;;5087143;28;20024;-69
2022/08/24 08:09:05;;;;;;;7.53;2.80;;;;;;;;;;5086875;28;20119;-69
2022/08/24 08:11:51;;;;;;;7.82;3.58;;;;;;;;;;5082295;28;20024;-67
2022/08/24 08:14:37;;;;;;;5.40;3.35;;;;;;;;;;5072377;28;20024;-66
2022/08/24 08:17:22;;;;;;;7.95;3.65;;;;;;;;;;5079633;28;20032;-64
2022/08/24 08:20:08;;;;;;;6.95;2.63;;;;;;;;;;5086570;28;20105;-64
2022/08/24 08:26:00;;;;;;;7.43;3.20;;;;;;;;;;5085000;28;20031;-61
2022/08/24 08:28:46;;;;;;;5.87;2.47;;;;;;;;;;5087156;28;20028;-61
2022/08/24 08:31:32;;;;;;;3.55;2.40;;;;;;;;;;5069763;28;20055;-75
2022/08/24 08:34:17;;;;;;;5.80;2.83;;;;;;;;;;5086207;28;20429;-66
2022/08/24 08:37:03;;;;;;;7.57;2.40;;;;;;;;;;5085431;28;20105;-68
2022/08/24 08:39:49;;;;;;;6.40;2.47;;;;;;;;;;5084282;28;20036;-67
2022/08/24 08:42:46;;;;;;;4.68;2.13;;;;;;;;;;5090189;28;20043;-68
2022/08/24 08:45:40;;;;;;;2.15;1.80;;;;;;;;;;5086000;28;20055;-69
2022/08/24 08:48:46;;;;;;;5.35;2.47;;;;;;;;;;5084192;28;20024;-63
2022/08/24 08:51:32;;;;;;;3.35;1.77;;;;;;;;;;5087601;28;20111;-66
2022/08/24 08:54:36;;;;;;;3.95;2.08;;;;;;;;;;5084788;28;20016;-66
2022/08/24 08:57:24;;;;;;;3.70;2.28;;;;;;;;;;5089920;28;20028;-68
2022/08/24 09:00:32;;;;;;;2.95;1.65;;;;;;;;;;5082893;28;20417;-71
2022/08/24 09:03:21;;;;;;;3.40;1.60;;;;;;;;;;5086204;28;20032;-69
2022/08/24 09:06:06;;;;;;;;;;;;;;;;;;5063375;28;20119;-67
2022/08/24 09:09:10;;;;;;;3.80;1.80;;;;;;;;;;5083122;28;20311;-61
2022/08/24 09:12:08;;;;;;;2.05;1.75;;;;;;;;;;5073329;28;20485;-61
2022/08/24 09:15:13;;;;;;;3.20;1.63;;;;;;;;;;5063836;28;20107;-64
2022/08/24 09:18:17;;;;;;;4.05;1.80;;;;;;;;;;5085750;28;20083;-65
2022/08/24 09:21:09;;;;;;;3.65;1.90;;;;;;;;;;5087533;28;20032;-64
2022/08/24 09:24:03;;;;;;;2.10;1.52;;;;;;;;;;5088105;28;20020;-62
2022/08/24 09:26:57;;;;;;;4.93;1.77;;;;;;;;;;5086677;28;20471;-66
2022/08/24 09:29:57;;;;;;;3.97;1.70;;;;;;;;;;5087267;28;20471;-61
2022/08/24 09:32:59;;;;;;;4.05;1.90;;;;;;;;;;5075143;28;20132;-61
2022/08/24 09:36:04;;;;;;;3.25;1.60;;;;;;;;;;5072612;28;20020;-61
2022/08/24 09:39:02;;;;;;;3.58;1.33;;;;;;;;;;5087093;28;20040;-60
2022/08/24 09:42:00;;;;;;;2.30;1.60;;;;;;;;;;5081757;28;20028;-59
2022/08/24 09:44:52;;;;;;;3.95;1.77;;;;;;;;;;5089468;28;20451;-66
2022/08/24 09:47:43;;;;;;;4.53;1.90;;;;;;;;;;5083436;28;20432;-66
2022/08/24 09:50:29;;;;;;;3.22;1.73;;;;;;;;;;5080649;28;20524;-65
2022/08/24 09:53:20;;;;;;;3.70;1.83;;;;;;;;;;5075624;28;20056;-65
2022/08/24 09:56:17;;;;;;;2.67;1.38;;;;;;;;;;5079463;28;20472;-62
2022/08/24 09:59:08;;;;;;;3.00;2.03;;;;;;;;;;5084423;28;20038;-62
2022/08/24 10:02:06;;;;;;;3.95;1.48;;;;;;;;;;5090418;28;20028;-60
2022/08/24 10:05:15;;;;;;;1.53;1.43;;;;;;;;;;5090021;28;20020;-67
2022/08/24 10:08:07;;;;;;;2.72;1.60;;;;;;;;;;5072022;28;20531;-67
2022/08/24 10:11:11;;;;;;;2.33;1.67;;;;;;;;;;5080922;28;20035;-67
2022/08/24 10:14:05;;;;;;;3.35;1.75;;;;;;;;;;5077061;28;20027;-66
2022/08/24 10:17:02;;;;;;;2.50;1.52;;;;;;;;;;5084446;28;20063;-65
2022/08/24 10:19:59;;;;;;;2.45;1.70;;;;;;;;;;5073493;28;20024;-67
2022/08/24 10:23:07;;;;;;;2.75;1.70;;;;;;;;;;5092879;28;20530;-62
2022/08/24 10:26:02;;;;;;;1.33;1.05;;;;;;;;;;5082417;28;20040;-71
2022/08/24 10:28:47;;;;;;;4.07;1.70;;;;;;;;;;5087448;28;20028;-70
2022/08/24 10:31:38;;;;;;;1.58;1.45;;;;;;;;;;5089398;28;20050;-71
2022/08/24 10:34:36;;;;;;;3.83;1.50;;;;;;;;;;5088794;28;20059;-70
2022/08/24 10:37:30;;;;;;;2.53;1.40;;;;;;;;;;5087366;28;20180;-75
2022/08/24 10:40:16;;;;;;;4.55;1.70;;;;;;;;;;5086336;28;20037;-61
2022/08/24 10:46:30;;;;;;;5.93;1.98;;;;;;;;;;5089976;28;20040;-69
2022/08/24 10:49:25;;;;;;;4.47;1.52;;;;;;;;;;5086787;28;20056;-69
2022/08/24 10:52:22;;;;;;;5.00;1.40;;;;;;;;;;5090762;28;20024;-72
2022/08/24 10:55:25;;;;;;;2.28;1.60;;;;;;;;;;5086133;28;20028;-73
2022/08/24 10:58:29;;;;;;;3.35;1.60;;;;;;;;;;5088003;28;20057;-61
2022/08/24 11:01:30;;;;;;;2.38;1.27;;;;;;;;;;5090135;28;20038;-74
2022/08/24 11:04:25;;;;;;;2.67;1.73;;;;;;;;;;5088141;28;20043;-74
2022/08/24 11:07:13;;;;;;;2.25;1.45;;;;;;;;;;5088324;28;20123;-69
2022/08/24 11:10:00;;;;;;;4.45;1.73;;;;;;;;;;5083750;28;20077;-70
2022/08/24 11:12:46;;;;;;;2.15;1.80;;;;;;;;;;5071181;28;20491;-69
2022/08/24 11:15:31;;;;;;;4.45;1.77;;;;;;;;;;5084228;28;20055;-71
2022/08/24 11:18:17;;;;;;;4.07;1.88;;;;;;;;;;5087588;28;20036;-62
2022/08/24 11:21:03;;;;;;;2.25;2.03;;;;;;;;;;5090343;28;20086;-64
2022/08/24 11:23:49;;;;;;;3.95;1.70;;;;;;;;;;5089151;28;20032;-63
2022/08/24 11:26:45;;;;;;;3.25;2.00;;;;;;;;;;5080608;28;20434;-66
2022/08/24 11:29:53;;;;;;;2.97;1.45;;;;;;;;;;5090278;28;20035;-64
2022/08/24 11:32:55;;;;;;;3.15;1.80;;;;;;;;;;5088226;28;20042;-63
2022/08/24 11:35:40;;;;;;;1.85;1.30;;;;;;;;;;5085988;28;20028;-64
2022/08/24 11:38:30;;;;;;;3.47;1.73;;;;;;;;;;5087368;28;20425;-63
2022/08/24 11:41:19;;;;;;;4.18;1.88;;;;;;;;;;5083299;28;20032;-62
2022/08/24 11:44:04;;;;;;;;;;;;;;;;;;5084801;28;20035;-69
2022/08/24 11:46:59;;;;;;;4.25;1.80;;;;;;;;;;5086146;28;19912;-66
2022/08/24 11:49:47;;;;;;;3.15;1.45;;;;;;;;;;5087283;28;20483;-67
2022/08/24 11:52:44;;;;;;;2.50;1.35;;;;;;;;;;5082900;28;20028;-73
2022/08/24 11:55:38;;;;;;;3.40;1.70;;;;;;;;;;5084313;28;20060;-73
2022/08/24 11:58:37;;;;;;;1.42;1.17;;;;;;;;;;5089005;28;20054;-67
2022/08/24 12:01:41;;;;;;;3.50;1.50;;;;;;;;;;5066073;28;20074;-73
2022/08/24 12:04:49;;;;;;;3.03;1.40;;;;;;;;;;5082494;28;20051;-70
2022/08/24 12:07:54;;;;;;;1.48;1.30;;;;;;;;;;5070445;28;20466;-69
2022/08/24 12:10:58;;;;;;;2.10;1.40;;;;;;;;;;5083362;28;20085;-69
2022/08/24 12:13:56;;;;;;;3.58;1.98;;;;;;;;;;5076456;28;20103;-65
2022/08/24 12:16:42;;;;;;;2.55;1.45;;;;;;;;;;5081558;28;20025;-63
2022/08/24 12:19:30;;;;;;;3.83;1.58;;;;;;;;;;5090953;28;20036;-63
2022/08/24 12:22:17;;;;;;;2.30;2.05;;;;;;;;;;5089783;28;20126;-63
2022/08/24 12:26:00;;;;;;;3.17;1.20;;;;;;;;;;5087150;28;20115;-63
2022/08/24 12:28:10;;;;;;;2.55;1.50;;;;;;;;;;5079954;28;20039;-62
2022/08/24 12:30:58;;;;;;;2.97;1.58;;;;;;;;;;5086408;28;20073;-62
2022/08/24 12:33:46;;;;;;;1.60;1.40;;;;;;;;;;5083837;28;20028;-69
2022/08/24 12:36:55;;;;;;;1.90;1.27;;;;;;;;;;5083544;28;20582;-69
2022/08/24 12:39:59;;;;;;;1.55;1.45;;;;;;;;;;5080973;28;20035;-68
2022/08/24 12:42:46;;;;;;;3.58;1.60;;;;;;;;;;5085204;28;20478;-69
2022/08/24 12:45:32;;;;;;;1.63;1.30;;;;;;;;;;5088575;28;20040;-69
2022/08/24 12:48:37;;;;;;;1.40;1.30;;;;;;;;;;5084346;28;20437;-72
2022/08/24 12:51:52;;;;;;;3.03;1.77;;;;;;;;;;5085669;28;20022;-64
2022/08/24 12:54:41;;;;;;;2.47;1.30;;;;;;;;;;5087849;28;20031;-63
2022/08/24 12:57:38;;;;;;;1.63;1.40;;;;;;;;;;5084148;28;20372;-65
2022/08/24 13:00:36;;;;;;;4.95;1.40;;;;;;;;;;5083346;28;20610;-64
2022/08/24 13:03:29;;;;;;;1.30;1.20;;;;;;;;;;5089222;28;20067;-65
2022/08/24 13:06:23;;;;;;;1.83;1.20;;;;;;;;;;5072940;28;20554;-69
2022/08/24 13:09:14;;;;;;;2.35;1.40;;;;;;;;;;5081345;28;20109;-64
2022/08/24 13:12:32;;;;;;;1.45;1.20;;;;;;;;;;5081632;28;20043;-71
2022/08/24 13:15:18;;;;;;;1.98;1.25;;;;;;;;;;5087240;28;20400;-69
2022/08/24 13:18:07;;;;;;;1.95;1.30;;;;;;;;;;5087047;28;20044;-71
2022/08/24 13:20:54;;;;;;;1.35;1.17;;;;;;;;;;5087393;28;20387;-69
2022/08/24 13:23:39;;;;;;;4.05;1.20;;;;;;;;;;5087250;28;20028;-71
2022/08/24 13:26:28;;;;;;;1.67;1.58;;;;;;;;;;5084084;28;20077;-71
2022/08/24 13:29:15;;;;;;;2.05;1.17;;;;;;;;;;5082921;28;20026;-71
2022/08/24 13:32:00;;;;;;;1.63;1.20;;;;;;;;;;5084800;28;20180;-72
2022/08/24 13:34:47;;;;;;;1.98;1.60;;;;;;;;;;5087849;28;20028;-72
2022/08/24 13:37:32;;;;;;;1.45;1.27;;;;;;;;;;5087980;28;20115;-69
2022/08/24 13:40:21;;;;;;;3.08;1.42;;;;;;;;;;5092096;28;20368;-71
2022/08/24 13:43:28;;;;;;;1.40;1.30;;;;;;;;;;5090744;28;20383;-67
2022/08/24 13:46:14;;;;;;;1.55;1.23;;;;;;;;;;5090337;28;20133;-63
2022/08/24 13:49:16;;;;;;;1.80;1.25;;;;;;;;;;5089364;28;20094;-74
2022/08/24 13:52:12;;;;;;;2.60;1.77;;;;;;;;;;5073459;28;20047;-74
2022/08/24 13:55:05;;;;;;;3.50;1.50;;;;;;;;;;5087475;28;20032;-75
2022/08/24 13:58:11;;;;;;;1.75;1.27;;;;;;;;;;5087561;28;20479;-74
2022/08/24 14:01:02;;;;;;;3.92;1.90;;;;;;;;;;5086117;28;20066;-73
2022/08/24 14:04:06;;;;;;;1.85;1.60;;;;;;;;;;5082172;28;20573;-76
2022/08/24 14:06:59;;;;;;;1.38;1.27;;;;;;;;;;5086563;28;20433;-75
2022/08/24 14:09:47;;;;;;;3.13;1.42;;;;;;;;;;5086332;28;20119;-77
2022/08/24 14:12:52;;;;;;;3.38;1.75;;;;;;;;;;5085802;28;20195;-75
2022/08/24 14:17:50;;;;;;;2.42;1.40;;;;;;;;;;5082642;28;20374;-77
2022/08/24 14:19:06;;;;;;;2.85;1.63;;;;;;;;;;5091678;28;20085;-79
2022/08/24 14:22:12;;;;;;;2.63;1.77;;;;;;;;;;5071531;28;20034;-84
2022/08/24 14:25:10;;;;;;;1.67;1.30;;;;;;;;;;5082335;28;20559;-75
2022/08/24 14:27:59;;;;;;;1.75;1.55;;;;;;;;;;5073351;28;20085;-80
2022/08/24 14:30:45;;;;;;;1.88;1.38;;;;;;;;;;5072069;28;20060;-81
2022/08/24 14:33:34;;;;;;;2.72;1.65;;;;;;;;;;5074093;28;20086;-82
2022/08/24 14:36:38;;;;;;;2.35;1.45;;;;;;;;;;5069702;28;20476;-80
2022/08/24 14:39:27;;;;;;;1.88;1.30;;;;;;;;;;5076541;28;20060;-79
2022/08/24 14:42:31;;;;;;;1.90;1.60;;;;;;;;;;5090621;28;20105;-80
2022/08/24 14:45:17;;;;;;;2.17;1.42;;;;;;;;;;5090457;28;20051;-80
2022/08/24 14:48:19;;;;;;;2.97;1.55;;;;;;;;;;5092747;28;20050;-82
2022/08/24 14:51:24;;;;;;;3.70;1.42;;;;;;;;;;5085594;28;20759;-81
2022/08/24 14:54:16;;;;;;;3.35;1.63;;;;;;;;;;5089675;28;20447;-79
2022/08/24 14:57:08;;;;;;;1.70;1.60;;;;;;;;;;5088240;28;20125;-64
2022/08/24 14:59:54;;;;;;;1.98;1.42;;;;;;;;;;5088215;28;20059;-69
2022/08/24 15:02:52;;;;;;;3.03;1.50;;;;;;;;;;5088135;28;20032;-70
2022/08/24 15:05:40;;;;;;;2.70;1.88;;;;;;;;;;5088026;28;20222;-68
2022/08/24 15:08:34;;;;;;;2.38;1.33;;;;;;;;;;5087008;28;20020;-68
2022/08/24 15:11:28;;;;;;;2.00;1.70;;;;;;;;;;5083041;28;20035;-67
2022/08/24 15:14:23;;;;;;;3.50;1.52;;;;;;;;;;5066879;28;20467;-68
2022/08/24 15:17:11;;;;;;;1.85;1.52;;;;;;;;;;5084151;28;20024;-68
2022/08/24 15:20:02;;;;;;;4.20;1.80;;;;;;;;;;5076032;28;20024;-69
2022/08/24 15:22:47;;;;;;;3.25;1.80;;;;;;;;;;5090458;28;20043;-65
2022/08/24 15:25:54;;;;;;;2.25;1.70;;;;;;;;;;5088406;28;20036;-68
2022/08/24 15:28:46;;;;;;;5.68;1.50;;;;;;;;;;5088456;28;20027;-67
2022/08/24 15:31:32;;;;;;;1.70;1.42;;;;;;;;;;5074530;28;20082;-67
2022/08/24 15:34:17;;;;;;;2.67;1.67;;;;;;;;;;5079944;28;20123;-67
2022/08/24 15:37:03;;;;;;;6.32;1.75;;;;;;;;;;5075468;28;20036;-72
2022/08/24 15:39:49;;;;;;;2.60;1.88;;;;;;;;;;5088232;28;20482;-73
2022/08/24 15:42:35;;;;;;;2.65;1.85;;;;;;;;;;5090409;28;20032;-72
2022/08/24 15:45:21;;;;;;;2.28;1.60;;;;;;;;;;5088333;28;20020;-70
2022/08/24 15:48:10;;;;;;;3.00;2.15;;;;;;;;;;5072687;28;20031;-73
2022/08/24 15:50:56;;;;;;;1.85;1.63;;;;;;;;;;5086526;28;20111;-73
2022/08/24 15:53:42;;;;;;;3.05;1.70;;;;;;;;;;5087477;28;20395;-64
2022/08/24 15:56:34;;;;;;;4.13;2.10;;;;;;;;;;5089068;28;20039;-69
2022/08/24 15:59:30;;;;;;;4.05;2.15;;;;;;;;;;5091080;28;20022;-67
2022/08/24 16:02:34;;;;;;;2.22;1.90;;;;;;;;;;5088308;28;20024;-68
2022/08/24 16:05:24;;;;;;;3.67;1.80;;;;;;;;;;5069912;28;20023;-68
2022/08/24 16:08:11;;;;;;;2.78;1.75;;;;;;;;;;5086161;28;20522;-69
2022/08/24 16:11:05;;;;;;;3.72;1.95;;;;;;;;;;5085055;28;20467;-62
2022/08/24 16:13:51;;;;;;;2.25;1.70;;;;;;;;;;5068919;28;20055;-69
2022/08/24 16:16:38;;;;;;;3.45;1.70;;;;;;;;;;5085126;28;20032;-68
2022/08/24 16:19:25;;;;;;;2.42;1.75;;;;;;;;;;5081766;28;20024;-68
2022/08/24 16:22:11;;;;;;;2.70;1.75;;;;;;;;;;5076612;28;20028;-69
2022/08/24 16:25:08;;;;;;;1.95;1.80;;;;;;;;;;5089910;28;20099;-66
2022/08/24 16:28:11;;;;;;;3.85;1.83;;;;;;;;;;5096760;28;20067;-68
2022/08/24 16:31:01;;;;;;;5.90;1.70;;;;;;;;;;5081887;28;20031;-69
2022/08/24 16:33:46;;;;;;;5.68;1.75;;;;;;;;;;5086708;28;20467;-66
2022/08/24 16:36:32;;;;;;;3.58;1.63;;;;;;;;;;5085096;28;20036;-67
2022/08/24 16:39:17;;;;;;;2.17;1.70;;;;;;;;;;5086351;28;20551;-66
2022/08/24 16:42:05;;;;;;;5.15;1.77;;;;;;;;;;5088017;28;20035;-68
2022/08/24 16:44:51;;;;;;;3.00;2.20;;;;;;;;;;5087400;28;20386;-69
2022/08/24 16:47:37;;;;;;;3.35;2.00;;;;;;;;;;5083173;28;20024;-69
2022/08/24 16:50:22;;;;;;;2.05;1.50;;;;;;;;;;5071984;28;20040;-78
2022/08/24 16:53:09;;;;;;;2.75;1.70;;;;;;;;;;5084198;28;20031;-74
2022/08/24 16:55:54;;;;;;;4.03;1.83;;;;;;;;;;5086855;28;20107;-78
2022/08/24 16:58:40;;;;;;;2.30;1.45;;;;;;;;;;5088603;28;20071;-78
2022/08/24 17:01:26;;;;;;;4.30;2.08;;;;;;;;;;5082748;28;20478;-77
2022/08/24 17:04:12;;;;;;;9.05;3.45;;;;;;;;;;5086875;28;20027;-77
2022/08/24 17:06:57;;;;;;;3.13;1.80;;;;;;;;;;5088063;28;20106;-67